createdAt,value
2022-09-16T00:01:30.836Z,7.00
2022-09-16T00:04:00.618Z,8.50
2022-09-16T00:06:31.677Z,8.00
2022-09-16T00:09:26.786Z,7.25
2022-09-16T00:11:52.524Z,6.75
2022-09-16T00:14:23.565Z,8.00
2022-09-16T00:16:54.093Z,10.00
2022-09-16T00:19:50.527Z,7.00
2022-09-16T00:23:05.120Z,7.00
2022-09-16T00:26:40.215Z,7.00
2022-09-16T00:30:14.255Z,9.25
2022-09-16T00:33:01.388Z,7.25
2022-09-16T00:35:46.274Z,9.25
2022-09-16T00:38:59.411Z,10.00
2022-09-16T00:42:06.348Z,8.00
2022-09-16T00:44:59.708Z,8.00
2022-09-16T00:47:36.648Z,7.00
2022-09-16T00:50:13.910Z,6.25
2022-09-16T00:52:48.482Z,8.00
2022-09-16T00:59:38.354Z,8.25
2022-09-16T01:06:01.651Z,6.75
2022-09-16T01:08:51.146Z,7.25
2022-09-16T01:11:49.714Z,7.25
2022-09-16T01:14:18.708Z,6.00
2022-09-16T01:17:22.896Z,7.00
2022-09-16T01:20:56.289Z,8.00
2022-09-16T01:24:28.235Z,9.25
2022-09-16T01:27:21.148Z,6.50
2022-09-16T01:30:51.326Z,6.00
2022-09-16T01:34:25.996Z,4.75
2022-09-16T01:36:56.912Z,5.75
2022-09-16T01:40:10.076Z,6.50
2022-09-16T01:42:49.798Z,9.25
2022-09-16T01:45:27.919Z,5.75
2022-09-16T01:48:17.599Z,5.00
2022-09-16T01:50:55.358Z,6.75
2022-09-16T01:53:33.061Z,5.25
2022-09-16T01:56:09.829Z,6.75
2022-09-16T01:59:16.356Z,7.00
2022-09-16T02:01:48.807Z,6.50
2022-09-16T02:04:30.910Z,4.75
2022-09-16T02:07:42.584Z,6.25
2022-09-16T02:10:22.287Z,6.50
2022-09-16T02:13:47.063Z,5.50
2022-09-16T02:16:15.449Z,5.25
2022-09-16T02:18:49.955Z,5.25
2022-09-16T02:21:41.252Z,4.25
2022-09-16T02:24:53.527Z,5.00
2022-09-16T02:27:48.818Z,6.00
2022-09-16T02:30:25.734Z,6.25
2022-09-16T02:33:15.080Z,4.75
2022-09-16T02:37:08.328Z,6.75
2022-09-16T02:39:43.058Z,6.00
2022-09-16T02:42:18.196Z,7.50
2022-09-16T02:48:35.954Z,5.25
2022-09-16T02:51:41.176Z,6.25
2022-09-16T02:55:26.199Z,8.25
2022-09-16T03:00:56.236Z,7.00
2022-09-16T03:03:28.363Z,5.00
2022-09-16T03:06:24.774Z,8.00
2022-09-16T03:09:09.470Z,6.00
2022-09-16T03:12:24.313Z,6.00
2022-09-16T03:15:23.105Z,7.00
2022-09-16T03:18:41.149Z,7.50
2022-09-16T03:30:53.333Z,7.00
2022-09-16T03:33:32.574Z,6.00
2022-09-16T03:36:17.734Z,6.25
2022-09-16T03:42:23.986Z,5.75
2022-09-16T03:44:58.817Z,6.50
2022-09-16T03:47:42.972Z,4.50
2022-09-16T03:50:10.493Z,5.50
2022-09-16T03:55:41.938Z,7.00
2022-09-16T03:58:39.490Z,5.00
2022-09-16T04:01:06.669Z,7.50
2022-09-16T04:03:35.200Z,6.25
2022-09-16T04:06:02.533Z,4.50
2022-09-16T04:08:29.990Z,5.00
2022-09-16T04:10:59.109Z,4.00
2022-09-16T04:13:28.687Z,5.50
2022-09-16T04:15:59.522Z,4.25
2022-09-16T04:27:19.739Z,5.75
2022-09-16T04:29:57.366Z,7.00
2022-09-16T05:15:51.289Z,4.25
2022-09-16T05:31:56.523Z,5.00
2022-09-16T05:34:23.364Z,8.75
2022-09-16T05:36:50.981Z,4.50
2022-09-16T05:39:26.298Z,4.75
2022-09-16T05:41:59.351Z,4.00
2022-09-16T05:44:49.092Z,5.00
2022-09-16T05:47:20.240Z,3.50
2022-09-16T05:49:55.934Z,3.00
2022-09-16T05:52:23.308Z,3.00
2022-09-16T05:54:50.246Z,2.00
2022-09-16T05:57:17.597Z,2.00
2022-09-16T05:59:44.751Z,2.00
2022-09-16T06:02:12.263Z,5.00
2022-09-16T06:04:40.643Z,3.75
2022-09-16T06:07:12.395Z,4.00
2022-09-16T06:09:39.238Z,3.75
2022-09-16T06:12:06.714Z,3.00
2022-09-16T06:14:33.511Z,4.00
2022-09-16T06:17:00.362Z,4.25
2022-09-16T06:19:28.291Z,5.00
2022-09-16T06:21:56.539Z,3.75
2022-09-16T06:24:23.807Z,3.00
2022-09-16T06:26:51.378Z,4.00
2022-09-16T06:29:53.864Z,2.25
2022-09-16T06:32:30.613Z,3.00
2022-09-16T06:34:57.577Z,3.00
2022-09-16T06:37:25.747Z,4.00
2022-09-16T06:39:52.853Z,2.25
2022-09-16T06:42:19.810Z,4.00
2022-09-16T06:44:46.801Z,4.00
2022-09-16T06:47:13.900Z,4.50
2022-09-16T06:49:41.091Z,4.25
2022-09-16T06:52:11.679Z,3.25
2022-09-16T06:54:40.210Z,2.25
2022-09-16T06:57:11.926Z,4.75
2022-09-16T06:59:39.285Z,4.50
2022-09-16T07:02:06.300Z,5.00
2022-09-16T07:04:33.259Z,4.00
2022-09-16T07:07:15.284Z,4.00
2022-09-16T07:09:43.755Z,4.50
2022-09-16T07:12:10.840Z,6.00
2022-09-16T07:14:37.787Z,5.00
2022-09-16T07:17:05.056Z,5.25
2022-09-16T07:19:33.048Z,3.00
2022-09-16T07:22:01.393Z,4.25
2022-09-16T07:24:28.195Z,3.50
2022-09-16T07:26:56.362Z,5.00
2022-09-16T07:29:23.589Z,5.25
2022-09-16T07:31:50.375Z,3.25
2022-09-16T07:34:17.527Z,4.75
2022-09-16T07:36:48.209Z,5.00
2022-09-16T07:39:18.558Z,5.75
2022-09-16T07:41:47.118Z,5.00
2022-09-16T07:44:18.706Z,6.25
2022-09-16T07:46:45.792Z,4.75
2022-09-16T07:49:14.948Z,6.25
2022-09-16T07:51:47.629Z,5.25
2022-09-16T07:54:19.683Z,6.25
2022-09-16T07:56:46.543Z,5.00
2022-09-16T07:59:32.539Z,6.00
2022-09-16T08:02:12.637Z,5.50
2022-09-16T08:04:39.669Z,3.50
2022-09-16T08:07:06.997Z,6.25
2022-09-16T08:09:39.683Z,4.00
2022-09-16T08:12:14.187Z,5.50
2022-09-16T08:14:42.429Z,4.50
2022-09-16T08:17:11.216Z,3.25
2022-09-16T08:19:38.408Z,5.00
2022-09-16T08:22:05.412Z,5.75
2022-09-16T08:24:32.234Z,3.00
2022-09-16T08:27:01.247Z,4.00
2022-09-16T08:29:30.684Z,8.50
2022-09-16T08:32:00.239Z,4.75
2022-09-16T08:34:27.314Z,4.50
2022-09-16T08:36:55.807Z,5.00
2022-09-16T08:39:27.354Z,4.75
2022-09-16T08:42:29.492Z,4.50
2022-09-16T08:45:10.340Z,5.00
2022-09-16T08:48:01.736Z,4.00
2022-09-16T08:50:34.210Z,4.00
2022-09-16T08:53:10.072Z,4.00
2022-09-16T08:55:55.668Z,3.25
2022-09-16T08:58:31.084Z,5.00
2022-09-16T09:01:12.280Z,6.00
2022-09-16T09:03:43.664Z,4.00
2022-09-16T09:06:27.490Z,4.25
2022-09-16T09:09:24.111Z,4.75
2022-09-16T09:12:05.036Z,3.00
2022-09-16T09:14:55.904Z,4.00
2022-09-16T09:17:48.682Z,2.00
2022-09-16T09:20:35.164Z,5.00
2022-09-16T09:23:21.976Z,4.25
2022-09-16T09:25:58.915Z,4.75
2022-09-16T09:29:06.196Z,3.50
2022-09-16T09:31:47.884Z,3.00
2022-09-16T09:34:41.611Z,4.00
2022-09-16T09:37:38.124Z,6.75
2022-09-16T09:40:15.792Z,4.00
2022-09-16T09:42:52.538Z,4.75
2022-09-16T09:45:30.501Z,4.75
2022-09-16T09:48:16.537Z,6.00
2022-09-16T09:50:48.748Z,4.00
2022-09-16T09:53:25.130Z,4.00
2022-09-16T09:56:04.464Z,5.75
2022-09-16T09:58:40.775Z,4.75
2022-09-16T10:01:10.229Z,4.00
2022-09-16T10:03:37.519Z,6.00
2022-09-16T10:06:05.352Z,4.00
2022-09-16T10:08:44.862Z,6.00
2022-09-16T10:11:21.093Z,5.75
2022-09-16T10:13:50.328Z,6.00
2022-09-16T10:16:26.383Z,4.00
2022-09-16T10:19:03.152Z,5.50
2022-09-16T10:21:42.074Z,6.00
2022-09-16T10:24:31.894Z,4.25
2022-09-16T10:27:01.735Z,7.00
2022-09-16T10:29:32.226Z,6.25
2022-09-16T10:32:13.419Z,6.75
2022-09-16T10:34:51.821Z,5.50
2022-09-16T10:37:37.512Z,7.50
2022-09-16T10:40:51.344Z,4.25
2022-09-16T10:43:35.831Z,4.25
2022-09-16T10:49:39.923Z,7.75
2022-09-16T10:52:09.652Z,5.00
2022-09-16T10:54:36.959Z,4.50
2022-09-16T10:57:04.190Z,5.00
2022-09-16T10:59:32.622Z,5.50
2022-09-16T11:02:18.397Z,6.25
2022-09-16T11:05:00.893Z,2.00
2022-09-16T11:07:45.396Z,6.00
2022-09-16T11:10:26.212Z,4.50
2022-09-16T11:13:23.047Z,4.50
2022-09-16T11:16:19.833Z,5.00
2022-09-16T11:19:02.009Z,5.25
2022-09-16T11:22:04.458Z,4.25
2022-09-16T11:25:06.940Z,4.25
2022-09-16T11:27:53.575Z,3.75
2022-09-16T11:30:22.523Z,4.75
2022-09-16T11:33:22.063Z,3.00
2022-09-16T11:36:37.755Z,7.00
2022-09-16T11:39:39.823Z,3.00
2022-09-16T12:31:35.035Z,2.80
2022-09-16T12:34:11.011Z,4.00
2022-09-16T12:36:43.910Z,2.80
2022-09-16T12:39:12.814Z,4.00
2022-09-16T12:42:09.103Z,2.40
2022-09-16T12:45:08.156Z,3.80
2022-09-16T12:48:06.811Z,2.60
2022-09-16T12:51:00.232Z,2.00
2022-09-16T12:54:21.935Z,1.40
2022-09-16T12:57:20.837Z,2.00
2022-09-16T13:00:15.592Z,2.00
2022-09-16T13:02:50.722Z,2.20
2022-09-16T13:05:33.043Z,2.60
2022-09-16T13:08:06.993Z,2.60
2022-09-16T13:11:00.683Z,2.20
2022-09-16T13:13:47.942Z,2.00
2022-09-16T13:16:29.857Z,2.00
2022-09-16T13:19:39.151Z,2.00
2022-09-16T13:22:23.483Z,2.00
2022-09-16T13:24:57.951Z,1.00
2022-09-16T13:27:31.565Z,2.00
2022-09-16T13:30:42.977Z,3.00
2022-09-16T13:33:29.390Z,2.00
2022-09-16T13:36:28.617Z,2.60
2022-09-16T13:39:04.663Z,3.00
2022-09-16T13:41:36.616Z,4.20
2022-09-16T13:44:27.325Z,5.00
2022-09-16T13:46:54.428Z,4.80
2022-09-16T13:49:26.735Z,2.60
2022-09-16T13:51:54.504Z,2.40
2022-09-16T13:54:37.148Z,3.80
2022-09-16T13:57:28.642Z,2.60
2022-09-16T14:00:18.669Z,2.20
2022-09-16T14:03:06.431Z,2.00
2022-09-16T14:06:16.775Z,2.40
2022-09-16T14:08:58.139Z,2.00
2022-09-16T14:11:40.182Z,2.40
2022-09-16T14:14:36.192Z,2.00
2022-09-16T14:17:13.185Z,1.00
2022-09-16T14:19:42.787Z,1.00
2022-09-16T14:22:17.993Z,2.00
2022-09-16T14:24:48.389Z,2.00
2022-09-16T14:27:28.068Z,0.00
2022-09-16T14:29:58.393Z,2.00
2022-09-16T14:32:30.268Z,2.00
2022-09-16T14:35:04.176Z,1.80
2022-09-16T14:37:34.183Z,1.00
2022-09-16T14:40:10.171Z,2.40
2022-09-16T14:42:39.414Z,1.60
2022-09-16T14:45:07.159Z,1.20
2022-09-16T14:47:54.076Z,1.40
2022-09-16T14:50:26.043Z,2.00
2022-09-16T14:52:57.659Z,2.00
2022-09-16T14:55:29.010Z,1.40
2022-09-16T14:57:56.656Z,3.00
2022-09-16T15:00:31.470Z,2.00
2022-09-16T15:03:05.145Z,1.00
2022-09-16T15:05:36.129Z,2.20
2022-09-16T15:08:16.347Z,2.00
2022-09-16T15:10:52.437Z,1.20
2022-09-16T15:13:24.532Z,2.00
2022-09-16T15:15:56.868Z,2.20
2022-09-16T15:18:27.614Z,1.20
2022-09-16T15:21:05.879Z,1.80
2022-09-16T15:23:37.225Z,3.00
2022-09-16T15:26:16.620Z,1.00
2022-09-16T15:28:53.811Z,1.00
2022-09-16T15:31:36.445Z,1.00
2022-09-16T15:34:20.390Z,1.40
2022-09-16T15:36:50.462Z,1.00
2022-09-16T15:39:25.893Z,1.50
2022-09-16T15:42:20.289Z,1.00
2022-09-16T15:44:50.561Z,1.00
2022-09-16T15:47:22.919Z,1.50
2022-09-16T15:53:13.522Z,1.25
2022-09-16T15:55:55.300Z,1.00
2022-09-16T15:58:36.637Z,0.50
2022-09-16T16:01:13.821Z,1.25
2022-09-16T16:03:54.449Z,0.00
2022-09-16T16:06:49.116Z,1.00
2022-09-16T16:09:35.783Z,2.50
2022-09-16T16:12:08.006Z,1.00
2022-09-16T16:14:36.840Z,2.00
2022-09-16T16:17:13.098Z,1.00
2022-09-16T16:19:41.258Z,4.00
2022-09-16T16:22:08.701Z,2.00
2022-09-16T16:24:37.726Z,0.00
2022-09-16T16:27:06.369Z,1.00
2022-09-16T16:29:33.138Z,0.25
2022-09-16T16:32:04.894Z,1.75
2022-09-16T16:34:34.180Z,1.00
2022-09-16T16:37:01.514Z,0.00
2022-09-16T16:41:59.372Z,0.00
2022-09-16T16:44:28.497Z,1.00
2022-09-16T16:46:56.124Z,1.00
2022-09-16T16:49:24.210Z,3.50
2022-09-16T16:51:53.079Z,2.00
2022-09-16T16:54:20.961Z,1.00
2022-09-16T16:56:48.641Z,0.75
2022-09-16T16:59:26.949Z,0.25
2022-09-16T17:01:57.817Z,0.25
2022-09-16T17:04:26.549Z,1.75
2022-09-16T17:07:24.598Z,1.25
2022-09-16T17:09:51.096Z,1.00
2022-09-16T17:12:18.066Z,0.50
2022-09-16T17:18:52.761Z,1.00
2022-09-16T17:21:24.985Z,0.75
2022-09-16T17:23:52.861Z,0.00
2022-09-16T17:26:24.514Z,1.75
2022-09-16T17:29:50.717Z,1.00
2022-09-16T17:33:22.701Z,1.00
2022-09-16T17:36:05.233Z,0.00
2022-09-16T17:38:34.830Z,0.25
2022-09-16T17:41:04.904Z,1.00
2022-09-16T17:46:42.443Z,0.50
2022-09-16T17:49:17.290Z,1.75
2022-09-16T17:51:44.687Z,2.00
2022-09-16T17:54:25.025Z,2.00
2022-09-16T18:00:22.710Z,2.00
2022-09-16T18:02:51.089Z,0.50
2022-09-16T18:05:19.815Z,2.00
2022-09-16T18:07:49.708Z,4.00
2022-09-16T18:11:22.375Z,2.75
2022-09-16T18:13:58.453Z,5.50
2022-09-16T18:21:53.057Z,1.00
2022-09-16T19:16:02.818Z,2.00
2022-09-16T20:01:19.561Z,2.75
2022-09-16T20:04:27.562Z,2.00
2022-09-16T20:06:54.886Z,1.25
2022-09-16T20:09:23.479Z,1.25
2022-09-16T20:11:50.631Z,4.50
2022-09-16T20:14:20.234Z,1.75
2022-09-16T20:16:50.757Z,1.00
2022-09-16T20:19:19.763Z,0.25
2022-09-16T20:21:46.743Z,0.00
2022-09-16T20:24:18.066Z,1.00
2022-09-16T20:26:46.022Z,1.00
2022-09-16T20:29:13.162Z,0.75
2022-09-16T20:31:41.175Z,2.00
2022-09-16T20:34:11.691Z,1.25
2022-09-16T20:36:39.768Z,0.50
2022-09-16T20:39:09.381Z,0.00
2022-09-16T20:41:40.155Z,0.25
2022-09-16T20:44:07.828Z,0.50
2022-09-16T20:46:37.368Z,0.00
2022-09-16T20:49:07.280Z,2.00
2022-09-16T20:51:37.349Z,0.00
2022-09-16T20:54:08.819Z,0.75
2022-09-16T20:56:39.374Z,1.00
2022-09-16T20:59:08.303Z,2.00
2022-09-16T21:01:37.499Z,1.75
2022-09-16T21:04:06.990Z,1.50
2022-09-16T21:06:36.688Z,1.00
2022-09-16T21:09:06.879Z,0.00
2022-09-16T21:11:34.582Z,0.25
2022-09-16T21:14:05.236Z,0.25
2022-09-16T21:16:33.209Z,0.00
2022-09-16T21:19:02.645Z,0.00
2022-09-16T21:21:31.038Z,0.00
2022-09-16T21:23:59.930Z,0.00
2022-09-16T21:26:29.791Z,0.00
2022-09-16T21:28:59.867Z,0.00
2022-09-16T21:31:29.084Z,0.00
2022-09-16T21:33:55.943Z,0.25
2022-09-16T21:36:25.639Z,0.00
2022-09-16T21:38:57.710Z,0.00
2022-09-16T21:41:29.059Z,0.00
2022-09-16T21:43:57.973Z,0.00
2022-09-16T21:46:30.468Z,0.25
2022-09-16T21:49:00.641Z,0.00
2022-09-16T21:51:29.825Z,0.00
2022-09-16T21:53:56.748Z,0.25
2022-09-16T21:56:23.632Z,0.00
2022-09-16T21:58:55.314Z,0.00
2022-09-16T22:01:25.312Z,0.00
2022-09-16T22:03:55.607Z,1.00
2022-09-16T22:06:24.107Z,0.00
2022-09-16T22:08:52.737Z,0.00
2022-09-16T22:11:22.762Z,0.00
2022-09-16T22:13:50.084Z,0.00
2022-09-16T22:16:23.386Z,0.00
2022-09-16T22:19:02.302Z,0.00
2022-09-16T22:21:31.960Z,1.25
2022-09-16T22:23:59.930Z,5.75
2022-09-16T22:26:28.852Z,13.50
2022-09-16T22:28:56.863Z,28.25
2022-09-16T22:31:27.722Z,23.00
2022-09-16T22:33:57.982Z,49.80
2022-09-16T22:36:28.117Z,31.00
2022-09-16T22:38:58.903Z,6.25
2022-09-16T22:41:57.203Z,4.50
2022-09-16T22:44:24.440Z,12.00
2022-09-16T22:46:52.734Z,38.00
2022-09-16T22:49:19.612Z,51.25
2022-09-16T22:51:46.585Z,23.50
2022-09-16T22:54:14.783Z,59.50
2022-09-16T22:56:43.118Z,56.00
2022-09-16T22:59:17.178Z,64.75
2022-09-16T23:01:44.580Z,62.75
2022-09-16T23:04:13.390Z,58.75
2022-09-16T23:06:40.427Z,66.00
2022-09-16T23:09:08.595Z,60.75
2022-09-16T23:11:36.161Z,30.00
2022-09-16T23:14:04.066Z,21.75
2022-09-16T23:16:34.469Z,1.50
2022-09-16T23:19:05.212Z,1.00
2022-09-16T23:21:33.601Z,0.00
2022-09-16T23:24:03.948Z,1.00
2022-09-16T23:26:33.664Z,0.00
2022-09-16T23:29:04.797Z,0.00
2022-09-16T23:31:36.627Z,0.67
2022-09-16T23:34:03.678Z,0.00
2022-09-16T23:36:30.678Z,0.33
2022-09-16T23:38:58.922Z,0.00
2022-09-16T23:41:26.065Z,0.33
2022-09-16T23:43:54.025Z,0.67
2022-09-16T23:46:24.334Z,0.00
2022-09-16T23:48:51.616Z,0.33
2022-09-16T23:51:24.602Z,0.00
2022-09-16T23:53:55.134Z,1.00
2022-09-16T23:56:23.454Z,0.00
2022-09-16T23:58:51.237Z,0.00
